Time;durP1;ratioP1;P1;durP2;ratioP2;P2;SDS_P1;SDS_P2;PMS_P1;PMS_P2;Temp;Humidity;BMP_temperature;BMP_pressure;BME280_temperature;BME280_humidity;BME280_pressure;Samples;Min_cycle;Max_cycle;Signal;HPM_P1;HPM_P2
2021/04/17 00:01:53;;;;;;;110.97;69.38;;;103.10;2227.20;;;;;;5031003;28;20040;-71
2021/04/17 00:04:20;;;;;;;99.35;60.47;;;103.20;2227.20;;;;;;5014620;28;20121;-71
2021/04/17 00:06:47;;;;;;;87.65;59.63;;;103.30;2227.20;;;;;;5030995;28;20041;-72
2021/04/17 00:09:24;;;;;;;96.60;59.42;;;103.10;2227.20;;;;;;5031158;28;20025;-72
2021/04/17 00:11:55;;;;;;;96.10;58.88;;;102.90;2227.20;;;;;;5051630;28;20059;-72
2021/04/17 00:14:24;;;;;;;100.90;62.88;;;103.00;2227.20;;;;;;5053265;28;20029;-71
2021/04/17 00:16:50;;;;;;;101.28;61.15;;;103.10;2227.20;;;;;;5053022;28;20107;-71
2021/04/17 00:19:16;;;;;;;102.93;66.22;;;103.20;2227.20;;;;;;5051556;28;20544;-72
2021/04/17 00:21:42;;;;;;;100.15;62.63;;;103.30;2227.20;;;;;;5052867;28;20662;-71
2021/04/17 00:24:08;;;;;;;104.47;65.50;;;128.00;2252.80;;;;;;5050928;28;20119;-72
2021/04/17 00:26:34;;;;;;;104.78;68.93;;;128.00;2252.80;;;;;;5053108;28;20036;-71
2021/04/17 00:29:02;;;;;;;114.85;75.43;;;128.10;2252.80;;;;;;5052545;28;20028;-72
2021/04/17 00:31:28;;;;;;;143.75;89.43;;;128.10;2252.80;;;;;;5052454;28;20031;-71
2021/04/17 00:33:54;;;;;;;136.43;86.40;;;103.20;2227.20;;;;;;5052397;28;20071;-71
2021/04/17 00:36:19;;;;;;;115.55;73.38;;;103.20;2227.20;;;;;;5052708;28;20021;-71
2021/04/17 00:38:45;;;;;;;110.07;67.38;;;103.30;2227.20;;;;;;5052424;28;20029;-71
2021/04/17 00:41:11;;;;;;;102.75;66.25;;;103.30;2227.20;;;;;;5052509;28;20116;-72
2021/04/17 00:43:36;;;;;;;114.80;67.90;;;128.00;2252.80;;;;;;5049974;28;20025;-72
2021/04/17 00:46:02;;;;;;;120.13;69.60;;;128.10;2252.80;;;;;;5047719;28;20029;-72
2021/04/17 00:48:28;;;;;;;113.80;69.15;;;128.10;2252.80;;;;;;5055519;28;20045;-72
2021/04/17 00:50:54;;;;;;;117.95;75.45;;;128.20;2252.80;;;;;;5038531;28;20021;-71
2021/04/17 00:53:20;;;;;;;136.30;84.43;;;128.20;2252.80;;;;;;5048229;28;20040;-72
2021/04/17 00:55:46;;;;;;;109.65;70.32;;;128.10;2252.80;;;;;;5051973;28;20146;-72
2021/04/17 00:58:12;;;;;;;108.22;68.97;;;128.10;2252.80;;;;;;5052277;28;20495;-72
2021/04/17 01:00:38;;;;;;;79.05;50.83;;;128.00;2252.80;;;;;;5051772;28;20384;-73
2021/04/17 01:03:14;;;;;;;70.65;45.63;;;128.00;2252.80;;;;;;5047108;28;20037;-72
2021/04/17 01:05:42;;;;;;;107.03;62.63;;;128.10;2252.80;;;;;;5059281;28;20143;-72
2021/04/17 01:08:22;;;;;;;98.78;64.50;;;128.10;2252.80;;;;;;5059190;28;20377;-74
2021/04/17 01:10:58;;;;;;;104.25;63.50;;;128.20;2252.80;;;;;;5059182;28;20118;-73
2021/04/17 01:13:25;;;;;;;94.80;62.72;;;128.30;2252.80;;;;;;5051179;28;20049;-72
2021/04/17 01:15:51;;;;;;;89.75;62.28;;;128.30;2252.80;;;;;;5060240;28;20103;-73
2021/04/17 01:18:19;;;;;;;99.20;56.88;;;128.40;2252.80;;;;;;5052004;28;20495;-73
2021/04/17 01:20:46;;;;;;;93.38;58.22;;;128.50;2252.80;;;;;;5051928;28;20025;-72
2021/04/17 01:23:32;;;;;;;97.63;57.42;;;128.50;2252.80;;;;;;5051020;28;20122;-73
2021/04/17 01:26:00;;;;;;;96.68;57.20;;;128.50;2252.80;;;;;;5051445;28;20372;-72
2021/04/17 01:28:28;;;;;;;95.18;55.05;;;128.40;2252.80;;;;;;5050887;28;20029;-71
2021/04/17 01:30:56;;;;;;;90.10;56.90;;;128.40;2252.80;;;;;;5051866;28;20025;-72
2021/04/17 01:33:25;;;;;;;92.68;60.20;;;128.50;2252.80;;;;;;5051782;28;20522;-72
2021/04/17 01:35:52;;;;;;;89.10;58.35;;;128.60;2252.80;;;;;;5050730;28;20021;-73
2021/04/17 01:38:24;;;;;;;84.47;54.30;;;128.60;2252.80;;;;;;5051910;28;20511;-72
2021/04/17 01:40:56;;;;;;;84.30;55.67;;;128.60;2252.80;;;;;;5050730;28;20375;-72
2021/04/17 01:43:24;;;;;;;74.88;49.20;;;128.80;2252.80;;;;;;5051844;28;20427;-72
2021/04/17 01:45:52;;;;;;;84.07;50.05;;;128.70;2252.80;;;;;;5052096;28;20041;-72
2021/04/17 01:48:19;;;;;;;88.53;52.55;;;128.80;2252.80;;;;;;5051523;28;20021;-72
2021/04/17 01:50:47;;;;;;;87.22;55.97;;;128.80;2252.80;;;;;;5050453;28;20021;-72
2021/04/17 01:53:18;;;;;;;79.30;51.42;;;128.90;2252.80;;;;;;5049482;28;20078;-72
2021/04/17 01:55:47;;;;;;;83.82;52.55;;;128.90;2252.80;;;;;;5051383;28;20128;-73
2021/04/17 01:58:19;;;;;;;85.32;54.83;;;128.70;2252.80;;;;;;5050564;28;20086;-72
2021/04/17 02:00:45;;;;;;;84.05;55.90;;;128.80;2252.80;;;;;;5051650;28;20039;-73
2021/04/17 02:03:10;;;;;;;94.03;58.97;;;128.90;2252.80;;;;;;5054214;28;20029;-72
2021/04/17 02:05:36;;;;;;;91.15;58.97;;;128.90;2252.80;;;;;;5052316;28;20028;-72
2021/04/17 02:08:02;;;;;;;97.32;58.75;;;128.80;2252.80;;;;;;5053942;28;20029;-73
2021/04/17 02:10:28;;;;;;;87.65;54.70;;;128.80;2252.80;;;;;;5054692;28;20025;-72
2021/04/17 02:12:54;;;;;;;79.63;54.80;;;128.80;2252.80;;;;;;5055120;28;20033;-73
2021/04/17 02:15:20;;;;;;;83.55;54.83;;;128.90;2252.80;;;;;;5053854;28;20021;-72
2021/04/17 02:17:56;;;;;;;99.10;65.97;;;128.90;2252.80;;;;;;5055019;28;20036;-73
2021/04/17 02:20:40;;;;;;;90.63;60.50;;;128.80;2252.80;;;;;;5055263;28;20025;-72
2021/04/17 02:23:08;;;;;;;90.13;59.13;;;128.80;2252.80;;;;;;5053183;28;20036;-72
2021/04/17 02:25:34;;;;;;;85.57;56.63;;;128.90;2252.80;;;;;;5053619;28;20036;-72
2021/04/17 02:28:00;;;;;;;76.50;51.83;;;128.70;2252.80;;;;;;5053834;28;20392;-73
2021/04/17 02:30:25;;;;;;;70.75;47.03;;;128.60;2252.80;;;;;;5054991;28;20033;-72
2021/04/17 02:32:51;;;;;;;71.15;49.60;;;128.70;2252.80;;;;;;5055022;28;20021;-72
2021/04/17 02:35:17;;;;;;;75.43;50.92;;;128.50;2252.80;;;;;;5054968;28;20021;-72
2021/04/17 02:37:43;;;;;;;76.80;51.92;;;128.70;2252.80;;;;;;5055134;28;20124;-72
2021/04/17 02:40:09;;;;;;;74.38;49.00;;;128.70;2252.80;;;;;;5054834;28;20092;-72
2021/04/17 02:42:35;;;;;;;60.15;39.20;;;128.60;2252.80;;;;;;5053674;28;20400;-72
2021/04/17 02:45:01;;;;;;;61.03;40.65;;;128.50;2252.80;;;;;;5052199;28;20024;-72
2021/04/17 02:47:26;;;;;;;60.70;40.83;;;128.60;2252.80;;;;;;5052647;28;20017;-73
2021/04/17 02:49:52;;;;;;;57.60;38.55;;;128.80;2252.80;;;;;;5053428;28;20074;-72
2021/04/17 02:52:18;;;;;;;58.15;40.08;;;128.80;2252.80;;;;;;5054458;28;20376;-73
2021/04/17 02:54:44;;;;;;;57.10;38.30;;;128.70;2252.80;;;;;;5054643;28;20049;-73
2021/04/17 02:57:09;;;;;;;54.03;36.20;;;128.80;2252.80;;;;;;5053481;28;20735;-73
2021/04/17 02:59:35;;;;;;;53.05;37.72;;;128.80;2252.80;;;;;;5052821;28;20029;-73
2021/04/17 03:02:01;;;;;;;56.88;39.28;;;128.90;2252.80;;;;;;5054278;28;20435;-73
2021/04/17 03:04:27;;;;;;;52.17;35.17;;;128.90;2252.80;;;;;;5054291;28;20169;-74
2021/04/17 03:06:53;;;;;;;51.50;35.33;;;128.90;2252.80;;;;;;5050497;28;20025;-73
2021/04/17 03:09:19;;;;;;;56.28;37.22;;;153.60;2252.80;;;;;;5054530;28;20075;-73
2021/04/17 03:11:45;;;;;;;51.28;36.03;;;128.90;2252.80;;;;;;5053006;28;20116;-73
2021/04/17 03:14:11;;;;;;;55.55;38.92;;;128.90;2252.80;;;;;;5053003;28;20381;-72
2021/04/17 03:16:37;;;;;;;53.95;36.15;;;128.90;2252.80;;;;;;5053331;28;20036;-72
2021/04/17 03:19:03;;;;;;;60.92;41.92;;;128.90;2252.80;;;;;;5053641;28;20100;-72
2021/04/17 03:21:28;;;;;;;48.35;35.15;;;128.90;2252.80;;;;;;5053649;28;20028;-72
2021/04/17 03:23:54;;;;;;;52.60;34.25;;;128.90;2252.80;;;;;;5053226;28;20036;-73
2021/04/17 03:26:20;;;;;;;57.35;36.60;;;128.90;2252.80;;;;;;5042217;28;20032;-72
2021/04/17 03:28:47;;;;;;;45.55;31.08;;;153.60;2252.80;;;;;;5053768;28;20021;-72
2021/04/17 03:31:13;;;;;;;45.13;33.40;;;153.60;2252.80;;;;;;5050727;28;20024;-72
2021/04/17 03:33:39;;;;;;;54.80;34.25;;;153.60;2252.80;;;;;;5052061;28;20033;-72
2021/04/17 03:36:05;;;;;;;50.80;34.83;;;153.60;2252.80;;;;;;5053698;28;20473;-72
2021/04/17 03:38:32;;;;;;;55.33;38.60;;;153.70;2252.80;;;;;;5052662;28;20025;-72
2021/04/17 03:40:57;;;;;;;61.88;37.53;;;128.90;2252.80;;;;;;5053537;28;20024;-72
2021/04/17 03:43:23;;;;;;;60.30;39.20;;;128.90;2252.80;;;;;;5052250;28;20025;-72
2021/04/17 03:45:49;;;;;;;57.67;35.97;;;153.60;2252.80;;;;;;5053619;28;20472;-72
2021/04/17 03:48:14;;;;;;;56.03;35.38;;;153.60;2252.80;;;;;;5053724;28;20118;-72
2021/04/17 03:50:40;;;;;;;48.65;35.28;;;153.70;2252.80;;;;;;5053169;28;20091;-72
2021/04/17 03:53:06;;;;;;;57.72;38.47;;;153.70;2252.80;;;;;;5053492;28;20109;-72
2021/04/17 03:55:32;;;;;;;61.08;39.20;;;153.70;2252.80;;;;;;5052461;28;20733;-72
2021/04/17 03:57:58;;;;;;;54.88;38.33;;;153.70;2252.80;;;;;;5053100;28;20063;-72
2021/04/17 04:00:24;;;;;;;58.10;39.60;;;153.70;2252.80;;;;;;5051686;28;20460;-72
2021/04/17 04:02:50;;;;;;;56.10;37.17;;;153.60;2252.80;;;;;;5051274;28;20488;-72
2021/04/17 04:05:16;;;;;;;56.20;36.58;;;153.60;2252.80;;;;;;5051315;28;20067;-72
2021/04/17 04:07:42;;;;;;;56.42;36.65;;;153.70;2252.80;;;;;;5052929;28;20024;-72
2021/04/17 04:10:09;;;;;;;52.90;34.22;;;153.70;2227.20;;;;;;5053196;28;20029;-73
2021/04/17 04:12:35;;;;;;;52.67;36.50;;;153.80;2227.20;;;;;;5050770;28;20029;-73
2021/04/17 04:15:02;;;;;;;60.60;39.38;;;153.80;2227.20;;;;;;5053250;28;20060;-73
2021/04/17 04:17:27;;;;;;;64.00;41.00;;;153.80;2227.20;;;;;;5052598;28;20088;-73
2021/04/17 04:19:53;;;;;;;60.90;39.78;;;153.90;2227.20;;;;;;5053057;28;20029;-73
2021/04/17 04:22:19;;;;;;;51.80;36.17;;;153.90;2227.20;;;;;;5053037;28;20031;-72
2021/04/17 04:24:44;;;;;;;58.67;38.13;;;153.90;2227.20;;;;;;5052076;28;20029;-73
2021/04/17 04:27:10;;;;;;;60.58;37.72;;;153.90;2227.20;;;;;;5052744;28;20049;-73
2021/04/17 04:29:36;;;;;;;57.22;39.47;;;154.00;2227.20;;;;;;5052816;28;20032;-73
2021/04/17 04:32:02;;;;;;;58.90;35.53;;;154.10;2227.20;;;;;;5052523;28;20141;-72
2021/04/17 04:34:28;;;;;;;52.17;35.88;;;154.20;2201.60;;;;;;5046215;28;20028;-73
2021/04/17 04:36:54;;;;;;;54.63;37.38;;;154.30;2201.60;;;;;;5060108;28;20104;-72
2021/04/17 04:39:19;;;;;;;54.10;34.35;;;154.30;2176.00;;;;;;5050864;28;20593;-73
2021/04/17 04:41:45;;;;;;;51.22;34.10;;;154.40;2176.00;;;;;;5052750;28;20033;-72
2021/04/17 04:44:11;;;;;;;51.63;34.72;;;154.40;2150.40;;;;;;5052430;28;20021;-73
2021/04/17 04:46:37;;;;;;;63.67;40.80;;;154.40;2150.40;;;;;;5052541;28;20095;-72
2021/04/17 04:49:02;;;;;;;56.00;37.15;;;154.40;2150.40;;;;;;5048619;28;20476;-72
2021/04/17 04:51:28;;;;;;;67.20;39.95;;;154.50;2124.80;;;;;;5052417;28;20037;-73
2021/04/17 04:53:54;;;;;;;62.05;39.55;;;179.20;2099.20;;;;;;5045479;28;20500;-73
2021/04/17 04:56:20;;;;;;;56.60;36.10;;;179.30;2124.80;;;;;;5050904;28;20044;-78
2021/04/17 04:58:46;;;;;;;59.22;37.38;;;179.50;2099.20;;;;;;5045231;28;20116;-72
2021/04/17 05:01:12;;;;;;;50.67;34.20;;;179.60;2073.60;;;;;;5045030;28;20140;-72
2021/04/17 05:03:38;;;;;;;51.33;33.10;;;179.70;2048.00;;;;;;5053705;28;20021;-72
2021/04/17 05:06:04;;;;;;;48.95;34.50;;;179.80;2048.00;;;;;;5050571;28;20013;-72
2021/04/17 05:08:30;;;;;;;53.17;35.53;;;179.90;2048.00;;;;;;5052346;28;20024;-72
2021/04/17 05:10:55;;;;;;;64.75;40.92;;;180.00;2048.00;;;;;;5048118;28;20399;-72
2021/04/17 05:13:21;;;;;;;60.72;40.58;;;180.10;2048.00;;;;;;5052060;28;20021;-72
2021/04/17 05:15:47;;;;;;;52.10;37.92;;;204.80;2022.40;;;;;;5051854;28;20078;-72
2021/04/17 05:18:13;;;;;;;44.33;29.33;;;204.90;1996.80;;;;;;5052083;28;20095;-73
2021/04/17 05:20:38;;;;;;;44.63;29.13;;;205.10;1971.20;;;;;;5051960;28;20033;-73
2021/04/17 05:23:04;;;;;;;39.38;26.08;;;205.10;1971.20;;;;;;5051897;28;20188;-72
2021/04/17 05:25:30;;;;;;;41.50;25.40;;;205.30;1920.00;;;;;;5052044;28;20025;-73
2021/04/17 05:27:55;;;;;;;48.10;27.95;;;205.40;1920.00;;;;;;5051924;28;20033;-73
2021/04/17 05:30:22;;;;;;;35.50;24.70;;;205.50;1920.00;;;;;;5051834;28;20025;-73
2021/04/17 05:32:47;;;;;;;36.22;26.05;;;205.60;1894.40;;;;;;5050675;28;20364;-72
2021/04/17 05:35:13;;;;;;;37.22;24.52;;;205.70;1868.80;;;;;;5051907;28;20029;-72
2021/04/17 05:37:39;;;;;;;33.20;23.88;;;205.70;1868.80;;;;;;5055547;28;20021;-73
2021/04/17 05:40:05;;;;;;;34.05;23.33;;;205.70;1868.80;;;;;;5058189;28;20032;-73
2021/04/17 05:42:31;;;;;;;32.45;23.73;;;205.70;1868.80;;;;;;5051188;28;20032;-73
2021/04/17 05:44:57;;;;;;;36.15;24.10;;;230.40;1868.80;;;;;;5053668;28;20112;-72
2021/04/17 05:47:22;;;;;;;34.58;25.90;;;230.50;1843.20;;;;;;5055517;28;20029;-72
2021/04/17 05:49:48;;;;;;;36.50;24.02;;;230.60;1817.60;;;;;;5055998;28;20056;-72
2021/04/17 05:52:14;;;;;;;37.17;26.48;;;230.60;1817.60;;;;;;5052191;28;20035;-72
2021/04/17 05:54:40;;;;;;;38.33;27.10;;;230.90;1843.20;;;;;;5063026;28;20064;-72
2021/04/17 05:57:06;;;;;;;42.70;29.77;;;231.00;1843.20;;;;;;5051738;28;20095;-72
2021/04/17 05:59:31;;;;;;;45.60;29.05;;;231.10;1868.80;;;;;;5048624;28;20467;-72
2021/04/17 06:01:57;;;;;;;40.05;31.75;;;231.30;1843.20;;;;;;5051490;28;20116;-73
2021/04/17 06:04:23;;;;;;;43.83;30.73;;;256.10;1792.00;;;;;;5049530;28;20052;-73
2021/04/17 06:06:48;;;;;;;42.45;28.30;;;256.20;1817.60;;;;;;5046900;28;20095;-73
2021/04/17 06:09:15;;;;;;;44.15;32.03;;;256.30;1792.00;;;;;;5049394;28;20045;-73
2021/04/17 06:11:41;;;;;;;57.58;34.40;;;256.40;1766.40;;;;;;5046079;28;20079;-73
2021/04/17 06:14:07;;;;;;;37.58;29.27;;;256.60;1740.80;;;;;;5046625;28;20118;-73
2021/04/17 06:16:32;;;;;;;37.25;28.10;;;256.90;1715.20;;;;;;5046608;28;20104;-73
2021/04/17 06:18:58;;;;;;;31.13;22.95;;;281.70;1664.00;;;;;;5048278;28;20029;-73
2021/04/17 06:21:24;;;;;;;30.83;23.15;;;281.90;1664.00;;;;;;5045930;28;20117;-73
2021/04/17 06:23:50;;;;;;;28.95;20.95;;;282.10;1638.40;;;;;;5047135;28;20028;-73
2021/04/17 06:26:15;;;;;;;29.20;19.67;;;282.30;1612.80;;;;;;5054365;28;20041;-72
2021/04/17 06:28:41;;;;;;;28.98;20.45;;;282.40;1612.80;;;;;;5057253;28;20032;-73
2021/04/17 06:31:07;;;;;;;24.27;18.20;;;282.50;1612.80;;;;;;5054900;28;20673;-72
2021/04/17 06:33:32;;;;;;;27.08;20.33;;;307.20;1612.80;;;;;;5062420;28;20024;-72
2021/04/17 06:35:58;;;;;;;31.52;23.00;;;307.20;1638.40;;;;;;5048460;28;20024;-73
2021/04/17 06:38:24;;;;;;;24.08;18.75;;;282.50;1612.80;;;;;;5047104;28;20025;-73
2021/04/17 06:40:51;;;;;;;23.40;17.23;;;307.30;1612.80;;;;;;5052417;28;20032;-73
2021/04/17 06:43:21;;;;;;;22.42;17.10;;;307.70;1536.00;;;;;;5046588;28;20458;-72
2021/04/17 06:45:48;;;;;;;21.33;15.95;;;307.90;1536.00;;;;;;5048678;28;20021;-72
2021/04/17 06:48:16;;;;;;;21.08;16.92;;;308.10;1484.80;;;;;;5047526;28;20078;-72
2021/04/17 06:50:43;;;;;;;21.27;16.70;;;333.00;1510.40;;;;;;5064339;28;20051;-72
2021/04/17 06:53:11;;;;;;;22.60;17.17;;;333.50;1484.80;;;;;;5054132;28;20087;-72
2021/04/17 06:55:38;;;;;;;18.92;14.55;;;358.50;1433.60;;;;;;5053900;28;20458;-72
2021/04/17 06:58:04;;;;;;;14.57;12.55;;;358.80;1305.60;;;;;;5053253;28;20033;-72
2021/04/17 07:00:30;;;;;;;14.45;12.18;;;358.80;1280.00;;;;;;5054252;28;20100;-72
2021/04/17 07:02:56;;;;;;;16.40;12.82;;;359.10;1254.40;;;;;;5047444;28;20029;-73
2021/04/17 07:05:22;;;;;;;13.98;10.85;;;359.10;1305.60;;;;;;5053970;28;20021;-72
2021/04/17 07:07:48;;;;;;;14.55;11.88;;;359.20;1254.40;;;;;;5047409;28;20040;-72
2021/04/17 07:10:14;;;;;;;15.57;12.25;;;384.00;1228.80;;;;;;5044616;28;20400;-72
2021/04/17 07:12:44;;;;;;;14.07;12.30;;;359.10;1254.40;;;;;;5033582;28;20392;-72
2021/04/17 07:15:10;;;;;;;11.98;9.65;;;358.70;1254.40;;;;;;5048901;28;20029;-72
2021/04/17 07:17:36;;;;;;;15.63;11.65;;;358.50;1228.80;;;;;;5051757;28;20361;-72
2021/04/17 07:20:17;;;;;;;16.60;13.02;;;358.40;1280.00;;;;;;5048714;28;20025;-72
2021/04/17 07:22:43;;;;;;;16.45;13.50;;;333.60;1280.00;;;;;;5053606;28;20036;-72
2021/04/17 07:25:08;;;;;;;15.60;12.85;;;333.20;1331.20;;;;;;5053581;28;20025;-72
2021/04/17 07:27:39;;;;;;;15.70;11.18;;;333.00;1331.20;;;;;;5053852;28;20055;-72
2021/04/17 07:30:27;;;;;;;20.15;14.88;;;333.30;1305.60;;;;;;5053494;28;20097;-72
2021/04/17 07:33:14;;;;;;;17.67;14.90;;;333.30;1280.00;;;;;;5048224;28;20080;-72
2021/04/17 07:35:43;;;;;;;16.30;14.43;;;333.50;1254.40;;;;;;5052404;28;20053;-72
2021/04/17 07:38:13;;;;;;;17.27;14.57;;;333.30;1280.00;;;;;;5053598;28;20107;-72
2021/04/17 07:40:41;;;;;;;17.20;13.95;;;333.30;1280.00;;;;;;5053472;28;20021;-72
2021/04/17 07:43:07;;;;;;;16.17;13.27;;;333.60;1254.40;;;;;;5053535;28;20032;-72
2021/04/17 07:45:40;;;;;;;16.02;11.93;;;333.60;1228.80;;;;;;5053581;28;20028;-72
2021/04/17 07:48:27;;;;;;;13.73;10.45;;;333.70;1254.40;;;;;;5053541;28;20515;-73
2021/04/17 07:50:59;;;;;;;13.38;10.50;;;358.50;1177.60;;;;;;5053808;28;20396;-72
2021/04/17 07:53:26;;;;;;;12.52;10.40;;;358.70;1203.20;;;;;;5052814;28;20096;-72
2021/04/17 07:55:52;;;;;;;10.60;8.52;;;358.70;1177.60;;;;;;5049023;28;20046;-72
2021/04/17 07:58:18;;;;;;;12.98;10.05;;;358.50;1152.00;;;;;;5043798;28;20021;-72
2021/04/17 08:00:44;;;;;;;14.80;10.85;;;358.40;1203.20;;;;;;5039435;28;20120;-71
2021/04/17 08:03:10;;;;;;;17.55;13.65;;;358.50;1152.00;;;;;;5042011;28;20021;-72
2021/04/17 08:05:37;;;;;;;13.00;10.05;;;358.40;1100.80;;;;;;5047986;28;20028;-72
2021/04/17 08:08:02;;;;;;;10.98;8.30;;;358.60;1049.60;;;;;;5041843;28;20020;-71
2021/04/17 08:10:31;;;;;;;15.57;13.75;;;358.60;1075.20;;;;;;5055080;28;20052;-73
2021/04/17 08:13:03;;;;;;;13.85;12.18;;;358.60;1049.60;;;;;;5044863;28;20475;-72
2021/04/17 08:15:31;;;;;;;10.40;9.25;;;358.70;1100.80;;;;;;5044653;28;20055;-73
2021/04/17 08:17:57;;;;;;;11.35;9.13;;;358.70;1126.40;;;;;;5050972;28;20021;-73
2021/04/17 08:20:23;;;;;;;13.30;8.95;;;358.80;1100.80;;;;;;5048035;28;20025;-73
2021/04/17 08:22:51;;;;;;;12.07;8.35;;;358.80;1100.80;;;;;;5044599;28;20084;-73
2021/04/17 08:25:22;;;;;;;13.20;10.85;;;358.70;1100.80;;;;;;5040401;28;20052;-73
2021/04/17 08:27:49;;;;;;;11.82;8.75;;;358.90;1100.80;;;;;;5045722;28;20058;-73
2021/04/17 08:30:27;;;;;;;11.75;8.68;;;358.90;1126.40;;;;;;5048075;28;20071;-73
2021/04/17 08:32:53;;;;;;;12.70;9.35;;;359.10;1100.80;;;;;;5042941;28;20025;-73
2021/04/17 08:35:21;;;;;;;9.90;8.05;;;358.90;1126.40;;;;;;5041871;28;20029;-73
2021/04/17 08:37:56;;;;;;;13.20;10.02;;;359.10;1100.80;;;;;;5040497;28;20106;-73
2021/04/17 08:40:39;;;;;;;11.60;9.40;;;384.10;1100.80;;;;;;5047410;28;20111;-73
2021/04/17 08:43:08;;;;;;;11.93;8.40;;;384.30;1049.60;;;;;;5049228;28;20053;-73
2021/04/17 08:45:34;;;;;;;12.05;9.75;;;384.40;1075.20;;;;;;5049034;28;20019;-72
2021/04/17 08:48:02;;;;;;;10.07;8.20;;;384.50;1075.20;;;;;;5060167;28;20022;-73
2021/04/17 08:50:32;;;;;;;9.63;7.13;;;384.70;998.40;;;;;;5048338;28;20499;-73
2021/04/17 08:53:16;;;;;;;9.48;7.90;;;384.70;998.40;;;;;;5046014;28;20029;-73
2021/04/17 08:55:41;;;;;;;11.00;8.68;;;384.80;998.40;;;;;;5048653;28;20446;-73
2021/04/17 08:58:11;;;;;;;9.73;8.48;;;384.50;1024.00;;;;;;5049604;28;20041;-73
2021/04/17 09:00:41;;;;;;;11.85;7.88;;;384.20;1049.60;;;;;;5040181;28;20022;-73
2021/04/17 09:03:07;;;;;;;13.57;9.35;;;359.30;1075.20;;;;;;5040345;28;20507;-73
2021/04/17 09:05:46;;;;;;;10.68;8.60;;;384.10;1049.60;;;;;;5057484;28;20037;-73
2021/04/17 09:08:15;;;;;;;12.43;9.48;;;384.30;1024.00;;;;;;5040516;28;20021;-74
2021/04/17 09:10:42;;;;;;;12.00;8.40;;;384.60;1024.00;;;;;;5042904;28;20084;-73
2021/04/17 09:13:12;;;;;;;9.95;8.15;;;384.90;998.40;;;;;;5041360;28;20032;-73
2021/04/17 09:15:58;;;;;;;11.15;8.55;;;409.60;1024.00;;;;;;5044365;28;20021;-73
2021/04/17 09:18:33;;;;;;;29.15;15.27;;;409.60;1024.00;;;;;;5045635;28;20028;-73
2021/04/17 09:21:18;;;;;;;12.23;9.35;;;409.90;998.40;;;;;;5037247;28;20076;-73
2021/04/17 09:23:46;;;;;;;14.80;8.75;;;409.90;998.40;;;;;;5032917;28;20060;-73
2021/04/17 09:26:33;;;;;;;15.75;10.68;;;410.20;972.80;;;;;;5043061;28;20084;-73
2021/04/17 09:29:12;;;;;;;10.38;8.63;;;410.30;972.80;;;;;;5049935;28;20037;-71
2021/04/17 09:31:38;;;;;;;9.43;7.60;;;410.50;947.20;;;;;;5046209;28;20036;-71
2021/04/17 09:34:07;;;;;;;11.80;9.30;;;435.20;921.60;;;;;;5047286;28;20051;-72
2021/04/17 09:36:33;;;;;;;14.38;10.63;;;435.40;947.20;;;;;;5047901;28;20025;-72
2021/04/17 09:39:00;;;;;;;10.38;8.75;;;435.20;947.20;;;;;;5049665;28;20487;-71
2021/04/17 09:41:52;;;;;;;12.07;8.70;;;435.50;921.60;;;;;;5046527;28;20033;-71
2021/04/17 09:44:19;;;;;;;11.52;9.48;;;435.70;947.20;;;;;;5045453;28;20033;-72
2021/04/17 09:46:47;;;;;;;13.10;10.10;;;435.50;947.20;;;;;;5050873;28;20021;-72
2021/04/17 09:49:50;;;;;;;12.88;10.35;;;410.40;998.40;;;;;;5049592;28;20017;-72
2021/04/17 09:52:19;;;;;;;22.88;14.48;;;410.50;972.80;;;;;;5049182;28;20472;-72
2021/04/17 09:54:58;;;;;;;12.93;9.43;;;435.40;972.80;;;;;;5046565;28;20040;-72
2021/04/17 09:57:25;;;;;;;11.65;9.38;;;435.70;947.20;;;;;;5045621;28;20395;-72
2021/04/17 09:59:55;;;;;;;14.90;10.73;;;435.40;972.80;;;;;;5049591;28;20481;-71
2021/04/17 10:02:42;;;;;;;18.42;12.32;;;435.40;972.80;;;;;;5057517;28;20554;-72
2021/04/17 10:05:08;;;;;;;18.30;13.07;;;410.30;998.40;;;;;;5059547;28;20029;-72
2021/04/17 10:07:44;;;;;;;13.88;11.20;;;410.20;1024.00;;;;;;5055244;28;20107;-72
2021/04/17 10:10:10;;;;;;;13.10;10.00;;;435.20;998.40;;;;;;5056031;28;20035;-72
2021/04/17 10:12:56;;;;;;;14.68;12.02;;;435.40;972.80;;;;;;5060949;28;20249;-71
2021/04/17 10:15:23;;;;;;;13.68;10.43;;;435.40;947.20;;;;;;5064895;28;20439;-72
2021/04/17 10:17:57;;;;;;;17.45;13.73;;;410.30;947.20;;;;;;5053161;28;20387;-72
2021/04/17 10:20:23;;;;;;;15.27;12.43;;;435.50;947.20;;;;;;5055604;28;20025;-71
2021/04/17 10:22:57;;;;;;;20.27;13.82;;;435.50;972.80;;;;;;5056585;28;20078;-72
2021/04/17 10:25:41;;;;;;;23.02;14.25;;;435.50;972.80;;;;;;5064335;28;20048;-72
2021/04/17 10:28:26;;;;;;;12.00;10.30;;;435.40;947.20;;;;;;5063154;28;20032;-72
2021/04/17 10:30:56;;;;;;;15.07;12.30;;;435.50;947.20;;;;;;5056363;28;20009;-71
2021/04/17 10:33:27;;;;;;;13.57;10.95;;;435.50;947.20;;;;;;5057155;28;20021;-72
2021/04/17 10:35:55;;;;;;;14.13;11.68;;;435.60;947.20;;;;;;5057710;28;20020;-71
2021/04/17 10:38:39;;;;;;;13.02;10.43;;;435.20;947.20;;;;;;5057816;28;20034;-72
2021/04/17 10:41:05;;;;;;;15.43;10.63;;;410.50;947.20;;;;;;5057855;28;20781;-71
2021/04/17 10:43:32;;;;;;;13.45;10.63;;;410.20;972.80;;;;;;5053857;28;20055;-72
2021/04/17 10:46:00;;;;;;;17.60;12.95;;;410.10;972.80;;;;;;5057030;28;20028;-72
2021/04/17 10:48:27;;;;;;;15.77;12.90;;;409.60;1024.00;;;;;;5056166;28;20509;-72
2021/04/17 10:51:01;;;;;;;14.38;10.85;;;409.90;998.40;;;;;;5061373;28;20029;-72
2021/04/17 10:53:41;;;;;;;12.77;10.73;;;409.90;998.40;;;;;;5069599;28;20029;-72
2021/04/17 10:56:16;;;;;;;14.02;10.63;;;409.70;998.40;;;;;;5050032;28;20041;-72
2021/04/17 10:58:43;;;;;;;12.43;10.27;;;409.80;1024.00;;;;;;5046968;28;20025;-73
2021/04/17 11:01:10;;;;;;;17.55;11.38;;;409.80;998.40;;;;;;5061687;28;20025;-73
2021/04/17 11:03:46;;;;;;;12.57;11.07;;;384.90;998.40;;;;;;5064169;28;20124;-73
2021/04/17 11:06:22;;;;;;;13.45;9.88;;;409.60;1024.00;;;;;;5057507;28;20103;-72
2021/04/17 11:08:50;;;;;;;15.60;11.00;;;409.90;1024.00;;;;;;5057656;28;20035;-72
2021/04/17 11:11:18;;;;;;;14.75;12.50;;;410.00;998.40;;;;;;5057044;28;20024;-73
2021/04/17 11:13:45;;;;;;;20.83;11.73;;;410.30;998.40;;;;;;5054134;28;20021;-73
2021/04/17 11:16:13;;;;;;;16.88;13.15;;;410.30;972.80;;;;;;5058926;28;20116;-73
2021/04/17 11:18:41;;;;;;;15.63;10.02;;;410.40;972.80;;;;;;5061215;28;20025;-72
2021/04/17 11:21:10;;;;;;;12.18;9.95;;;435.20;947.20;;;;;;5060648;28;20013;-72
2021/04/17 11:23:53;;;;;;;29.63;19.85;;;435.40;947.20;;;;;;5061685;28;20025;-72
2021/04/17 11:26:21;;;;;;;20.65;16.85;;;435.80;921.60;;;;;;5057481;28;20033;-73
2021/04/17 11:28:49;;;;;;;22.08;17.27;;;435.90;947.20;;;;;;5047615;28;21413;-73
2021/04/17 11:31:18;;;;;;;20.15;15.18;;;436.00;921.60;;;;;;5038144;28;20029;-72
2021/04/17 11:33:45;;;;;;;17.45;13.20;;;435.90;947.20;;;;;;5042804;28;20493;-73
2021/04/17 11:36:11;;;;;;;15.75;11.63;;;435.70;947.20;;;;;;5046099;28;20017;-72
2021/04/17 11:38:37;;;;;;;14.15;12.10;;;436.00;921.60;;;;;;5043209;28;20078;-72
2021/04/17 11:41:03;;;;;;;13.13;10.93;;;435.90;921.60;;;;;;5037344;28;20092;-73
2021/04/17 11:43:29;;;;;;;13.35;10.40;;;436.10;921.60;;;;;;5041968;28;20107;-74
2021/04/17 11:45:54;;;;;;;12.27;10.18;;;435.80;896.00;;;;;;5057049;28;20027;-73
2021/04/17 11:48:20;;;;;;;10.25;8.55;;;435.80;896.00;;;;;;5052267;28;20471;-74
2021/04/17 11:50:46;;;;;;;11.52;9.43;;;435.90;896.00;;;;;;5049223;28;20063;-73
2021/04/17 11:53:12;;;;;;;12.48;10.75;;;435.70;921.60;;;;;;5046471;28;20025;-74
2021/04/17 11:55:38;;;;;;;14.38;10.93;;;435.50;921.60;;;;;;5047995;28;20131;-73
2021/04/17 11:58:04;;;;;;;11.20;9.35;;;435.50;947.20;;;;;;5044180;28;20033;-74
2021/04/17 12:00:30;;;;;;;27.58;19.33;;;435.50;947.20;;;;;;5045191;28;20031;-73
2021/04/17 12:02:56;;;;;;;16.55;13.77;;;435.40;947.20;;;;;;5040482;28;20116;-73
2021/04/17 12:05:21;;;;;;;14.10;11.52;;;435.20;972.80;;;;;;5056017;28;20078;-73
2021/04/17 12:07:47;;;;;;;14.10;12.20;;;435.50;947.20;;;;;;5056319;28;20074;-73